sensor_id;sensor_type;location;lat;lon;timestamp;P1;durP1;ratioP1;P2;durP2;ratioP2
3916;SDS011;1973;50.518;7.318;2023-05-10T00:00:31;1.90;;;0.90;;
3916;SDS011;1973;50.518;7.318;2023-05-10T00:02:58;1.33;;;0.70;;
3916;SDS011;1973;50.518;7.318;2023-05-10T00:05:24;1.00;;;0.70;;
3916;SDS011;1973;50.518;7.318;2023-05-10T00:07:51;0.97;;;0.50;;
3916;SDS011;1973;50.518;7.318;2023-05-10T00:10:17;1.63;;;0.70;;
3916;SDS011;1973;50.518;7.318;2023-05-10T00:12:44;2.40;;;0.87;;
3916;SDS011;1973;50.518;7.318;2023-05-10T00:15:10;1.30;;;0.80;;
3916;SDS011;1973;50.518;7.318;2023-05-10T00:17:37;2.47;;;0.80;;
3916;SDS011;1973;50.518;7.318;2023-05-10T00:20:03;3.97;;;0.70;;
3916;SDS011;1973;50.518;7.318;2023-05-10T00:22:31;1.90;;;0.70;;
3916;SDS011;1973;50.518;7.318;2023-05-10T00:24:58;1.83;;;0.60;;
3916;SDS011;1973;50.518;7.318;2023-05-10T00:27:24;1.63;;;0.70;;
3916;SDS011;1973;50.518;7.318;2023-05-10T00:29:51;3.00;;;1.07;;
3916;SDS011;1973;50.518;7.318;2023-05-10T00:32:17;1.13;;;0.87;;
3916;SDS011;1973;50.518;7.318;2023-05-10T00:34:44;1.67;;;0.80;;
3916;SDS011;1973;50.518;7.318;2023-05-10T00:37:10;2.27;;;0.60;;
3916;SDS011;1973;50.518;7.318;2023-05-10T00:39:37;1.00;;;0.70;;
3916;SDS011;1973;50.518;7.318;2023-05-10T00:42:03;1.73;;;0.70;;
3916;SDS011;1973;50.518;7.318;2023-05-10T00:44:30;2.47;;;0.80;;
3916;SDS011;1973;50.518;7.318;2023-05-10T00:46:57;1.67;;;0.80;;
3916;SDS011;1973;50.518;7.318;2023-05-10T00:49:24;2.90;;;0.67;;
3916;SDS011;1973;50.518;7.318;2023-05-10T00:51:51;1.10;;;0.70;;
3916;SDS011;1973;50.518;7.318;2023-05-10T00:54:18;3.20;;;0.77;;
3916;SDS011;1973;50.518;7.318;2023-05-10T00:56:44;2.47;;;0.83;;
3916;SDS011;1973;50.518;7.318;2023-05-10T00:59:15;1.93;;;0.80;;
3916;SDS011;1973;50.518;7.318;2023-05-10T01:01:46;1.20;;;0.70;;
3916;SDS011;1973;50.518;7.318;2023-05-10T01:04:13;1.00;;;0.70;;
3916;SDS011;1973;50.518;7.318;2023-05-10T01:06:40;2.03;;;0.67;;
3916;SDS011;1973;50.518;7.318;2023-05-10T01:09:07;1.50;;;0.60;;
3916;SDS011;1973;50.518;7.318;2023-05-10T01:11:34;1.40;;;0.70;;
3916;SDS011;1973;50.518;7.318;2023-05-10T01:14:02;1.57;;;0.70;;
3916;SDS011;1973;50.518;7.318;2023-05-10T01:16:29;4.00;;;0.80;;
3916;SDS011;1973;50.518;7.318;2023-05-10T01:19:02;1.27;;;0.73;;
3916;SDS011;1973;50.518;7.318;2023-05-10T01:22:06;1.77;;;0.90;;
3916;SDS011;1973;50.518;7.318;2023-05-10T01:33:11;2.20;;;0.70;;
3916;SDS011;1973;50.518;7.318;2023-05-10T01:35:53;1.80;;;0.80;;
3916;SDS011;1973;50.518;7.318;2023-05-10T01:38:30;1.83;;;0.60;;
3916;SDS011;1973;50.518;7.318;2023-05-10T01:46:51;1.00;;;0.70;;
3916;SDS011;1973;50.518;7.318;2023-05-10T01:49:26;1.90;;;0.80;;
3916;SDS011;1973;50.518;7.318;2023-05-10T01:51:59;1.50;;;1.03;;
3916;SDS011;1973;50.518;7.318;2023-05-10T01:54:30;1.50;;;0.80;;
3916;SDS011;1973;50.518;7.318;2023-05-10T01:57:00;1.60;;;0.90;;
3916;SDS011;1973;50.518;7.318;2023-05-10T01:59:30;1.90;;;0.90;;
3916;SDS011;1973;50.518;7.318;2023-05-10T02:02:02;3.00;;;0.70;;
3916;SDS011;1973;50.518;7.318;2023-05-10T02:04:31;1.20;;;0.90;;
3916;SDS011;1973;50.518;7.318;2023-05-10T02:07:01;1.93;;;0.80;;
3916;SDS011;1973;50.518;7.318;2023-05-10T02:09:28;1.00;;;0.70;;
3916;SDS011;1973;50.518;7.318;2023-05-10T02:11:58;2.07;;;0.90;;
3916;SDS011;1973;50.518;7.318;2023-05-10T02:14:28;1.50;;;0.70;;
3916;SDS011;1973;50.518;7.318;2023-05-10T02:16:58;1.43;;;1.00;;
3916;SDS011;1973;50.518;7.318;2023-05-10T02:19:25;1.23;;;0.80;;
3916;SDS011;1973;50.518;7.318;2023-05-10T02:21:55;2.07;;;0.90;;
3916;SDS011;1973;50.518;7.318;2023-05-10T02:24:22;1.13;;;0.73;;
3916;SDS011;1973;50.518;7.318;2023-05-10T02:26:51;1.60;;;0.70;;
3916;SDS011;1973;50.518;7.318;2023-05-10T02:29:20;1.23;;;0.87;;
3916;SDS011;1973;50.518;7.318;2023-05-10T02:31:49;1.27;;;0.80;;
3916;SDS011;1973;50.518;7.318;2023-05-10T02:34:19;1.67;;;1.00;;
3916;SDS011;1973;50.518;7.318;2023-05-10T02:36:52;1.30;;;0.80;;
3916;SDS011;1973;50.518;7.318;2023-05-10T02:39:20;2.50;;;0.97;;
3916;SDS011;1973;50.518;7.318;2023-05-10T02:41:48;1.30;;;0.70;;
3916;SDS011;1973;50.518;7.318;2023-05-10T02:44:17;1.13;;;0.87;;
3916;SDS011;1973;50.518;7.318;2023-05-10T02:46:45;1.10;;;0.80;;
3916;SDS011;1973;50.518;7.318;2023-05-10T02:49:13;2.50;;;0.97;;
3916;SDS011;1973;50.518;7.318;2023-05-10T02:51:49;2.10;;;0.97;;
3916;SDS011;1973;50.518;7.318;2023-05-10T02:54:24;1.43;;;0.97;;
3916;SDS011;1973;50.518;7.318;2023-05-10T02:56:54;1.33;;;0.80;;
3916;SDS011;1973;50.518;7.318;2023-05-10T02:59:24;3.93;;;0.90;;
3916;SDS011;1973;50.518;7.318;2023-05-10T03:01:50;1.87;;;1.00;;
3916;SDS011;1973;50.518;7.318;2023-05-10T03:04:17;6.87;;;1.00;;
3916;SDS011;1973;50.518;7.318;2023-05-10T03:06:43;3.90;;;0.93;;
3916;SDS011;1973;50.518;7.318;2023-05-10T03:09:10;1.97;;;0.80;;
3916;SDS011;1973;50.518;7.318;2023-05-10T03:11:49;1.20;;;0.90;;
3916;SDS011;1973;50.518;7.318;2023-05-10T03:17:04;1.70;;;1.13;;
3916;SDS011;1973;50.518;7.318;2023-05-10T03:19:53;1.10;;;0.90;;
3916;SDS011;1973;50.518;7.318;2023-05-10T03:22:25;1.20;;;0.80;;
3916;SDS011;1973;50.518;7.318;2023-05-10T03:24:56;1.67;;;0.90;;
3916;SDS011;1973;50.518;7.318;2023-05-10T03:27:25;2.43;;;0.90;;
3916;SDS011;1973;50.518;7.318;2023-05-10T03:29:53;1.43;;;0.93;;
3916;SDS011;1973;50.518;7.318;2023-05-10T03:32:22;1.30;;;0.90;;
3916;SDS011;1973;50.518;7.318;2023-05-10T03:34:49;2.03;;;1.10;;
3916;SDS011;1973;50.518;7.318;2023-05-10T03:37:15;1.40;;;0.90;;
3916;SDS011;1973;50.518;7.318;2023-05-10T03:39:41;1.80;;;0.90;;
3916;SDS011;1973;50.518;7.318;2023-05-10T03:42:08;2.00;;;1.20;;
3916;SDS011;1973;50.518;7.318;2023-05-10T03:44:40;1.37;;;0.83;;
3916;SDS011;1973;50.518;7.318;2023-05-10T03:47:07;1.50;;;0.80;;
3916;SDS011;1973;50.518;7.318;2023-05-10T03:49:34;1.67;;;1.00;;
3916;SDS011;1973;50.518;7.318;2023-05-10T03:52:00;1.53;;;1.00;;
3916;SDS011;1973;50.518;7.318;2023-05-10T03:54:27;1.60;;;1.37;;
3916;SDS011;1973;50.518;7.318;2023-05-10T03:56:53;2.57;;;1.17;;
3916;SDS011;1973;50.518;7.318;2023-05-10T03:59:20;1.70;;;0.93;;
3916;SDS011;1973;50.518;7.318;2023-05-10T04:01:46;2.40;;;1.10;;
3916;SDS011;1973;50.518;7.318;2023-05-10T04:04:12;2.60;;;1.47;;
3916;SDS011;1973;50.518;7.318;2023-05-10T04:06:39;4.70;;;1.30;;
3916;SDS011;1973;50.518;7.318;2023-05-10T04:09:05;2.00;;;1.57;;
3916;SDS011;1973;50.518;7.318;2023-05-10T04:11:32;1.60;;;1.13;;
3916;SDS011;1973;50.518;7.318;2023-05-10T04:13:58;3.70;;;1.73;;
3916;SDS011;1973;50.518;7.318;2023-05-10T04:16:25;1.83;;;1.17;;
3916;SDS011;1973;50.518;7.318;2023-05-10T04:18:51;1.90;;;1.30;;
3916;SDS011;1973;50.518;7.318;2023-05-10T04:21:18;2.77;;;1.30;;
3916;SDS011;1973;50.518;7.318;2023-05-10T04:23:44;1.60;;;1.10;;
3916;SDS011;1973;50.518;7.318;2023-05-10T04:26:11;4.17;;;1.27;;
3916;SDS011;1973;50.518;7.318;2023-05-10T04:28:38;2.50;;;1.20;;
3916;SDS011;1973;50.518;7.318;2023-05-10T04:31:05;2.00;;;1.23;;
3916;SDS011;1973;50.518;7.318;2023-05-10T04:33:33;2.50;;;1.23;;
3916;SDS011;1973;50.518;7.318;2023-05-10T04:36:00;2.13;;;0.93;;
3916;SDS011;1973;50.518;7.318;2023-05-10T04:38:27;1.90;;;1.30;;
3916;SDS011;1973;50.518;7.318;2023-05-10T04:40:54;1.97;;;1.37;;
3916;SDS011;1973;50.518;7.318;2023-05-10T04:43:20;1.43;;;1.20;;
3916;SDS011;1973;50.518;7.318;2023-05-10T04:45:47;1.80;;;1.20;;
3916;SDS011;1973;50.518;7.318;2023-05-10T04:48:13;8.93;;;1.30;;
3916;SDS011;1973;50.518;7.318;2023-05-10T04:50:40;2.50;;;1.10;;
3916;SDS011;1973;50.518;7.318;2023-05-10T04:53:06;1.63;;;1.30;;
3916;SDS011;1973;50.518;7.318;2023-05-10T04:55:33;1.60;;;1.30;;
3916;SDS011;1973;50.518;7.318;2023-05-10T04:57:59;1.90;;;1.40;;
3916;SDS011;1973;50.518;7.318;2023-05-10T05:00:26;2.03;;;1.27;;
3916;SDS011;1973;50.518;7.318;2023-05-10T05:02:53;1.80;;;1.47;;
3916;SDS011;1973;50.518;7.318;2023-05-10T05:05:19;3.80;;;1.57;;
3916;SDS011;1973;50.518;7.318;2023-05-10T05:07:46;3.03;;;1.30;;
3916;SDS011;1973;50.518;7.318;2023-05-10T05:10:12;2.50;;;1.63;;
3916;SDS011;1973;50.518;7.318;2023-05-10T05:12:39;2.63;;;1.77;;
3916;SDS011;1973;50.518;7.318;2023-05-10T05:15:06;6.87;;;1.60;;
3916;SDS011;1973;50.518;7.318;2023-05-10T05:17:35;3.20;;;2.03;;
3916;SDS011;1973;50.518;7.318;2023-05-10T05:20:02;3.50;;;1.90;;
3916;SDS011;1973;50.518;7.318;2023-05-10T05:22:29;2.13;;;1.40;;
3916;SDS011;1973;50.518;7.318;2023-05-10T05:24:56;2.60;;;1.40;;
3916;SDS011;1973;50.518;7.318;2023-05-10T05:27:24;2.27;;;1.57;;
3916;SDS011;1973;50.518;7.318;2023-05-10T05:29:52;6.00;;;1.60;;
3916;SDS011;1973;50.518;7.318;2023-05-10T05:32:19;2.23;;;1.70;;
3916;SDS011;1973;50.518;7.318;2023-05-10T05:34:46;2.70;;;2.20;;
3916;SDS011;1973;50.518;7.318;2023-05-10T05:37:14;2.23;;;1.70;;
3916;SDS011;1973;50.518;7.318;2023-05-10T05:39:44;2.23;;;1.70;;
3916;SDS011;1973;50.518;7.318;2023-05-10T05:42:11;2.00;;;1.80;;
3916;SDS011;1973;50.518;7.318;2023-05-10T05:44:38;4.77;;;2.00;;
3916;SDS011;1973;50.518;7.318;2023-05-10T05:47:05;3.10;;;2.03;;
3916;SDS011;1973;50.518;7.318;2023-05-10T05:49:32;3.90;;;2.30;;
3916;SDS011;1973;50.518;7.318;2023-05-10T05:51:59;1.70;;;1.50;;
3916;SDS011;1973;50.518;7.318;2023-05-10T05:54:27;2.77;;;2.17;;
3916;SDS011;1973;50.518;7.318;2023-05-10T05:56:54;2.40;;;2.03;;
3916;SDS011;1973;50.518;7.318;2023-05-10T05:59:23;2.40;;;2.10;;
3916;SDS011;1973;50.518;7.318;2023-05-10T06:01:50;2.20;;;1.80;;
3916;SDS011;1973;50.518;7.318;2023-05-10T06:04:16;3.90;;;2.27;;
3916;SDS011;1973;50.518;7.318;2023-05-10T06:06:43;2.77;;;2.37;;
3916;SDS011;1973;50.518;7.318;2023-05-10T06:09:10;2.07;;;1.67;;
3916;SDS011;1973;50.518;7.318;2023-05-10T06:11:37;2.40;;;1.90;;
3916;SDS011;1973;50.518;7.318;2023-05-10T06:14:04;3.77;;;2.30;;
3916;SDS011;1973;50.518;7.318;2023-05-10T06:16:35;4.03;;;2.00;;
3916;SDS011;1973;50.518;7.318;2023-05-10T06:19:02;3.73;;;2.10;;
3916;SDS011;1973;50.518;7.318;2023-05-10T06:21:29;3.30;;;2.10;;
3916;SDS011;1973;50.518;7.318;2023-05-10T06:23:56;3.10;;;2.40;;
3916;SDS011;1973;50.518;7.318;2023-05-10T06:26:23;3.50;;;2.13;;
3916;SDS011;1973;50.518;7.318;2023-05-10T06:28:49;3.57;;;2.30;;
3916;SDS011;1973;50.518;7.318;2023-05-10T06:31:16;4.93;;;2.67;;
3916;SDS011;1973;50.518;7.318;2023-05-10T06:33:42;2.70;;;2.20;;
3916;SDS011;1973;50.518;7.318;2023-05-10T06:36:09;2.97;;;1.67;;
3916;SDS011;1973;50.518;7.318;2023-05-10T06:38:35;3.80;;;1.70;;
3916;SDS011;1973;50.518;7.318;2023-05-10T06:41:02;2.23;;;1.77;;
3916;SDS011;1973;50.518;7.318;2023-05-10T06:43:28;4.30;;;2.80;;
3916;SDS011;1973;50.518;7.318;2023-05-10T06:45:55;3.27;;;2.77;;
3916;SDS011;1973;50.518;7.318;2023-05-10T06:48:22;2.57;;;2.23;;
3916;SDS011;1973;50.518;7.318;2023-05-10T06:50:48;2.77;;;2.20;;
3916;SDS011;1973;50.518;7.318;2023-05-10T06:53:15;3.00;;;2.40;;
3916;SDS011;1973;50.518;7.318;2023-05-10T06:55:41;3.07;;;2.77;;
3916;SDS011;1973;50.518;7.318;2023-05-10T06:58:07;4.20;;;3.23;;
3916;SDS011;1973;50.518;7.318;2023-05-10T07:00:34;3.10;;;2.33;;
3916;SDS011;1973;50.518;7.318;2023-05-10T07:03:00;5.70;;;2.77;;
3916;SDS011;1973;50.518;7.318;2023-05-10T07:05:27;2.30;;;2.10;;
3916;SDS011;1973;50.518;7.318;2023-05-10T07:07:54;3.00;;;2.40;;
3916;SDS011;1973;50.518;7.318;2023-05-10T07:10:20;3.23;;;2.50;;
3916;SDS011;1973;50.518;7.318;2023-05-10T07:12:47;3.00;;;2.70;;
3916;SDS011;1973;50.518;7.318;2023-05-10T07:15:13;4.63;;;2.97;;
3916;SDS011;1973;50.518;7.318;2023-05-10T07:17:40;5.03;;;3.53;;
3916;SDS011;1973;50.518;7.318;2023-05-10T07:20:10;5.07;;;3.47;;
3916;SDS011;1973;50.518;7.318;2023-05-10T07:22:36;8.80;;;3.63;;
3916;SDS011;1973;50.518;7.318;2023-05-10T07:25:03;3.80;;;3.10;;
3916;SDS011;1973;50.518;7.318;2023-05-10T07:27:30;5.67;;;2.80;;
3916;SDS011;1973;50.518;7.318;2023-05-10T07:29:56;5.27;;;3.13;;
3916;SDS011;1973;50.518;7.318;2023-05-10T07:32:22;4.40;;;3.10;;
3916;SDS011;1973;50.518;7.318;2023-05-10T07:34:49;4.17;;;2.90;;
3916;SDS011;1973;50.518;7.318;2023-05-10T07:37:15;4.23;;;3.10;;
3916;SDS011;1973;50.518;7.318;2023-05-10T07:39:42;2.70;;;2.17;;
3916;SDS011;1973;50.518;7.318;2023-05-10T07:42:08;4.87;;;3.00;;
3916;SDS011;1973;50.518;7.318;2023-05-10T07:44:35;3.10;;;2.80;;
3916;SDS011;1973;50.518;7.318;2023-05-10T07:47:01;4.60;;;2.23;;
3916;SDS011;1973;50.518;7.318;2023-05-10T07:49:28;3.53;;;2.70;;
3916;SDS011;1973;50.518;7.318;2023-05-10T07:51:54;2.47;;;2.17;;
3916;SDS011;1973;50.518;7.318;2023-05-10T07:54:20;4.07;;;2.50;;
3916;SDS011;1973;50.518;7.318;2023-05-10T07:56:47;2.67;;;2.47;;
3916;SDS011;1973;50.518;7.318;2023-05-10T07:59:15;3.80;;;2.43;;
3916;SDS011;1973;50.518;7.318;2023-05-10T08:01:42;4.47;;;2.13;;
3916;SDS011;1973;50.518;7.318;2023-05-10T08:04:09;4.00;;;2.17;;
3916;SDS011;1973;50.518;7.318;2023-05-10T08:06:36;6.53;;;2.63;;
3916;SDS011;1973;50.518;7.318;2023-05-10T08:09:02;3.23;;;2.20;;
3916;SDS011;1973;50.518;7.318;2023-05-10T08:11:29;3.33;;;2.30;;
3916;SDS011;1973;50.518;7.318;2023-05-10T08:13:55;3.73;;;2.37;;
3916;SDS011;1973;50.518;7.318;2023-05-10T08:16:22;3.17;;;2.10;;
3916;SDS011;1973;50.518;7.318;2023-05-10T08:18:48;3.43;;;3.03;;
3916;SDS011;1973;50.518;7.318;2023-05-10T08:21:16;8.23;;;2.73;;
3916;SDS011;1973;50.518;7.318;2023-05-10T08:23:43;2.80;;;2.50;;
3916;SDS011;1973;50.518;7.318;2023-05-10T08:26:10;7.97;;;2.83;;
3916;SDS011;1973;50.518;7.318;2023-05-10T08:28:37;4.63;;;3.03;;
3916;SDS011;1973;50.518;7.318;2023-05-10T08:31:04;4.03;;;3.17;;
3916;SDS011;1973;50.518;7.318;2023-05-10T08:33:31;3.10;;;2.50;;
3916;SDS011;1973;50.518;7.318;2023-05-10T08:35:57;3.57;;;2.60;;
3916;SDS011;1973;50.518;7.318;2023-05-10T08:38:24;11.80;;;3.43;;
3916;SDS011;1973;50.518;7.318;2023-05-10T08:40:50;5.80;;;3.40;;
3916;SDS011;1973;50.518;7.318;2023-05-10T08:43:22;4.00;;;2.70;;
3916;SDS011;1973;50.518;7.318;2023-05-10T08:45:53;4.50;;;3.17;;
3916;SDS011;1973;50.518;7.318;2023-05-10T08:48:20;6.17;;;3.37;;
3916;SDS011;1973;50.518;7.318;2023-05-10T08:50:51;3.03;;;2.73;;
3916;SDS011;1973;50.518;7.318;2023-05-10T08:53:19;4.83;;;2.57;;
3916;SDS011;1973;50.518;7.318;2023-05-10T08:55:48;3.53;;;2.90;;
3916;SDS011;1973;50.518;7.318;2023-05-10T08:58:15;3.90;;;2.80;;
3916;SDS011;1973;50.518;7.318;2023-05-10T09:00:42;4.13;;;3.30;;
3916;SDS011;1973;50.518;7.318;2023-05-10T09:03:09;2.97;;;2.67;;
3916;SDS011;1973;50.518;7.318;2023-05-10T09:05:36;5.20;;;4.30;;
3916;SDS011;1973;50.518;7.318;2023-05-10T09:08:03;5.30;;;4.80;;
3916;SDS011;1973;50.518;7.318;2023-05-10T09:10:30;5.50;;;4.13;;
3916;SDS011;1973;50.518;7.318;2023-05-10T09:12:57;2.60;;;2.30;;
3916;SDS011;1973;50.518;7.318;2023-05-10T09:15:24;1.43;;;1.27;;
3916;SDS011;1973;50.518;7.318;2023-05-10T09:17:51;2.17;;;1.60;;
3916;SDS011;1973;50.518;7.318;2023-05-10T09:20:18;1.93;;;1.40;;
3916;SDS011;1973;50.518;7.318;2023-05-10T09:22:45;1.73;;;1.00;;
3916;SDS011;1973;50.518;7.318;2023-05-10T09:27:40;2.30;;;1.37;;
3916;SDS011;1973;50.518;7.318;2023-05-10T09:30:07;1.70;;;1.60;;
3916;SDS011;1973;50.518;7.318;2023-05-10T09:32:41;1.80;;;1.13;;
3916;SDS011;1973;50.518;7.318;2023-05-10T09:35:10;1.40;;;1.10;;
3916;SDS011;1973;50.518;7.318;2023-05-10T09:37:41;5.73;;;1.60;;
3916;SDS011;1973;50.518;7.318;2023-05-10T09:40:12;2.13;;;1.47;;
3916;SDS011;1973;50.518;7.318;2023-05-10T09:42:40;3.20;;;0.90;;
3916;SDS011;1973;50.518;7.318;2023-05-10T09:45:08;3.50;;;2.90;;
3916;SDS011;1973;50.518;7.318;2023-05-10T09:47:35;1.83;;;1.20;;
3916;SDS011;1973;50.518;7.318;2023-05-10T09:50:02;2.40;;;1.03;;
3916;SDS011;1973;50.518;7.318;2023-05-10T09:52:45;2.37;;;1.40;;
3916;SDS011;1973;50.518;7.318;2023-05-10T09:55:25;3.77;;;0.70;;
3916;SDS011;1973;50.518;7.318;2023-05-10T09:58:04;3.10;;;1.40;;
3916;SDS011;1973;50.518;7.318;2023-05-10T10:00:39;2.00;;;1.10;;
3916;SDS011;1973;50.518;7.318;2023-05-10T10:03:11;4.83;;;2.10;;
3916;SDS011;1973;50.518;7.318;2023-05-10T10:05:40;4.73;;;1.10;;
3916;SDS011;1973;50.518;7.318;2023-05-10T10:08:09;2.33;;;0.70;;
3916;SDS011;1973;50.518;7.318;2023-05-10T10:10:36;2.60;;;0.90;;
3916;SDS011;1973;50.518;7.318;2023-05-10T10:13:02;1.93;;;0.60;;
3916;SDS011;1973;50.518;7.318;2023-05-10T10:15:29;1.63;;;0.93;;
3916;SDS011;1973;50.518;7.318;2023-05-10T10:17:55;1.40;;;0.90;;
3916;SDS011;1973;50.518;7.318;2023-05-10T10:20:22;1.43;;;0.90;;
3916;SDS011;1973;50.518;7.318;2023-05-10T10:22:49;2.23;;;0.70;;
3916;SDS011;1973;50.518;7.318;2023-05-10T10:25:16;1.70;;;0.70;;
3916;SDS011;1973;50.518;7.318;2023-05-10T10:30:36;6.93;;;0.70;;
3916;SDS011;1973;50.518;7.318;2023-05-10T10:36:06;1.40;;;0.70;;
3916;SDS011;1973;50.518;7.318;2023-05-10T10:38:37;1.00;;;0.60;;
3916;SDS011;1973;50.518;7.318;2023-05-10T10:41:29;1.20;;;0.63;;
3916;SDS011;1973;50.518;7.318;2023-05-10T10:47:01;1.03;;;0.70;;
3916;SDS011;1973;50.518;7.318;2023-05-10T10:49:51;1.53;;;0.70;;
3916;SDS011;1973;50.518;7.318;2023-05-10T10:52:42;0.90;;;0.70;;
3916;SDS011;1973;50.518;7.318;2023-05-10T10:55:13;0.90;;;0.50;;
3916;SDS011;1973;50.518;7.318;2023-05-10T10:57:45;2.80;;;0.60;;
3916;SDS011;1973;50.518;7.318;2023-05-10T11:00:23;1.43;;;0.70;;
3916;SDS011;1973;50.518;7.318;2023-05-10T11:02:57;2.27;;;0.60;;
3916;SDS011;1973;50.518;7.318;2023-05-10T11:05:43;2.43;;;0.73;;
3916;SDS011;1973;50.518;7.318;2023-05-10T11:08:11;1.47;;;0.90;;
3916;SDS011;1973;50.518;7.318;2023-05-10T11:10:40;2.10;;;1.23;;
3916;SDS011;1973;50.518;7.318;2023-05-10T11:13:14;4.60;;;3.07;;
3916;SDS011;1973;50.518;7.318;2023-05-10T11:15:48;2.30;;;1.90;;
3916;SDS011;1973;50.518;7.318;2023-05-10T11:18:19;1.60;;;1.10;;
3916;SDS011;1973;50.518;7.318;2023-05-10T11:20:57;1.73;;;0.70;;
3916;SDS011;1973;50.518;7.318;2023-05-10T11:23:29;1.13;;;0.50;;
3916;SDS011;1973;50.518;7.318;2023-05-10T11:25:56;1.53;;;0.60;;
3916;SDS011;1973;50.518;7.318;2023-05-10T11:28:23;0.90;;;0.60;;
3916;SDS011;1973;50.518;7.318;2023-05-10T11:30:49;0.90;;;0.50;;
3916;SDS011;1973;50.518;7.318;2023-05-10T11:33:17;0.90;;;0.50;;
3916;SDS011;1973;50.518;7.318;2023-05-10T11:35:45;1.03;;;0.60;;
3916;SDS011;1973;50.518;7.318;2023-05-10T11:38:12;1.07;;;0.60;;
3916;SDS011;1973;50.518;7.318;2023-05-10T11:40:40;1.50;;;0.60;;
3916;SDS011;1973;50.518;7.318;2023-05-10T11:43:08;1.00;;;0.60;;
3916;SDS011;1973;50.518;7.318;2023-05-10T11:45:36;2.30;;;0.63;;
3916;SDS011;1973;50.518;7.318;2023-05-10T11:48:03;1.87;;;1.00;;
3916;SDS011;1973;50.518;7.318;2023-05-10T11:50:30;1.77;;;0.50;;
3916;SDS011;1973;50.518;7.318;2023-05-10T11:52:56;0.90;;;0.70;;
3916;SDS011;1973;50.518;7.318;2023-05-10T11:55:23;1.63;;;0.60;;
3916;SDS011;1973;50.518;7.318;2023-05-10T11:57:53;0.90;;;0.50;;
3916;SDS011;1973;50.518;7.318;2023-05-10T12:00:20;1.10;;;0.70;;
3916;SDS011;1973;50.518;7.318;2023-05-10T12:02:47;1.00;;;0.60;;
3916;SDS011;1973;50.518;7.318;2023-05-10T12:05:14;1.97;;;0.60;;
3916;SDS011;1973;50.518;7.318;2023-05-10T12:07:41;1.00;;;0.60;;
3916;SDS011;1973;50.518;7.318;2023-05-10T12:10:08;0.90;;;0.60;;
3916;SDS011;1973;50.518;7.318;2023-05-10T12:12:40;1.00;;;0.60;;
3916;SDS011;1973;50.518;7.318;2023-05-10T12:15:27;1.10;;;0.70;;
3916;SDS011;1973;50.518;7.318;2023-05-10T12:17:54;0.90;;;0.60;;
3916;SDS011;1973;50.518;7.318;2023-05-10T12:20:22;1.87;;;0.70;;
3916;SDS011;1973;50.518;7.318;2023-05-10T12:22:54;3.63;;;0.80;;
3916;SDS011;1973;50.518;7.318;2023-05-10T12:25:30;1.30;;;0.70;;
3916;SDS011;1973;50.518;7.318;2023-05-10T12:27:58;2.07;;;0.90;;
3916;SDS011;1973;50.518;7.318;2023-05-10T12:30:29;1.73;;;0.60;;
3916;SDS011;1973;50.518;7.318;2023-05-10T12:35:31;1.00;;;0.60;;
3916;SDS011;1973;50.518;7.318;2023-05-10T12:37:57;1.00;;;0.70;;
3916;SDS011;1973;50.518;7.318;2023-05-10T12:40:24;1.33;;;0.60;;
3916;SDS011;1973;50.518;7.318;2023-05-10T12:42:51;1.23;;;0.67;;
3916;SDS011;1973;50.518;7.318;2023-05-10T12:45:18;1.47;;;0.80;;
3916;SDS011;1973;50.518;7.318;2023-05-10T12:47:45;1.20;;;0.63;;
3916;SDS011;1973;50.518;7.318;2023-05-10T12:50:11;1.20;;;0.80;;
3916;SDS011;1973;50.518;7.318;2023-05-10T12:52:37;1.40;;;0.70;;
3916;SDS011;1973;50.518;7.318;2023-05-10T12:55:04;1.10;;;0.70;;
3916;SDS011;1973;50.518;7.318;2023-05-10T12:57:31;1.17;;;0.70;;
3916;SDS011;1973;50.518;7.318;2023-05-10T12:59:57;1.10;;;0.90;;
3916;SDS011;1973;50.518;7.318;2023-05-10T13:02:23;1.50;;;0.83;;
3916;SDS011;1973;50.518;7.318;2023-05-10T13:04:50;1.83;;;1.10;;
3916;SDS011;1973;50.518;7.318;2023-05-10T13:07:16;1.07;;;0.70;;
3916;SDS011;1973;50.518;7.318;2023-05-10T13:09:43;2.37;;;0.93;;
3916;SDS011;1973;50.518;7.318;2023-05-10T13:12:10;1.00;;;0.60;;
3916;SDS011;1973;50.518;7.318;2023-05-10T13:14:36;1.40;;;0.60;;
3916;SDS011;1973;50.518;7.318;2023-05-10T13:17:03;1.10;;;0.60;;
3916;SDS011;1973;50.518;7.318;2023-05-10T13:19:29;2.20;;;0.70;;
3916;SDS011;1973;50.518;7.318;2023-05-10T13:21:55;1.50;;;0.80;;
3916;SDS011;1973;50.518;7.318;2023-05-10T13:24:22;1.40;;;0.80;;
3916;SDS011;1973;50.518;7.318;2023-05-10T13:26:48;2.23;;;0.80;;
3916;SDS011;1973;50.518;7.318;2023-05-10T13:29:15;1.00;;;0.70;;
3916;SDS011;1973;50.518;7.318;2023-05-10T13:31:44;2.90;;;0.80;;
3916;SDS011;1973;50.518;7.318;2023-05-10T13:34:10;1.30;;;0.80;;
3916;SDS011;1973;50.518;7.318;2023-05-10T13:36:37;1.13;;;0.70;;
3916;SDS011;1973;50.518;7.318;2023-05-10T13:39:04;1.60;;;0.87;;
3916;SDS011;1973;50.518;7.318;2023-05-10T13:41:31;1.10;;;0.67;;
3916;SDS011;1973;50.518;7.318;2023-05-10T13:43:58;1.33;;;0.67;;
3916;SDS011;1973;50.518;7.318;2023-05-10T13:46:24;4.77;;;1.17;;
3916;SDS011;1973;50.518;7.318;2023-05-10T13:48:50;6.70;;;5.60;;
3916;SDS011;1973;50.518;7.318;2023-05-10T13:51:17;6.03;;;3.00;;
3916;SDS011;1973;50.518;7.318;2023-05-10T13:53:43;2.10;;;1.67;;
3916;SDS011;1973;50.518;7.318;2023-05-10T13:56:10;4.50;;;1.10;;
3916;SDS011;1973;50.518;7.318;2023-05-10T13:58:36;1.53;;;0.70;;
3916;SDS011;1973;50.518;7.318;2023-05-10T14:01:03;2.30;;;1.00;;
3916;SDS011;1973;50.518;7.318;2023-05-10T14:03:30;4.93;;;0.80;;
3916;SDS011;1973;50.518;7.318;2023-05-10T14:05:57;3.17;;;0.80;;
3916;SDS011;1973;50.518;7.318;2023-05-10T14:08:24;3.57;;;0.93;;
3916;SDS011;1973;50.518;7.318;2023-05-10T14:10:50;2.47;;;0.80;;
3916;SDS011;1973;50.518;7.318;2023-05-10T14:13:18;1.67;;;0.70;;
3916;SDS011;1973;50.518;7.318;2023-05-10T14:15:44;2.50;;;0.80;;
3916;SDS011;1973;50.518;7.318;2023-05-10T14:18:11;2.53;;;0.70;;
3916;SDS011;1973;50.518;7.318;2023-05-10T14:20:37;1.87;;;0.90;;
3916;SDS011;1973;50.518;7.318;2023-05-10T14:23:04;1.20;;;0.70;;
3916;SDS011;1973;50.518;7.318;2023-05-10T14:25:30;1.10;;;0.70;;
3916;SDS011;1973;50.518;7.318;2023-05-10T14:27:56;1.37;;;0.60;;
3916;SDS011;1973;50.518;7.318;2023-05-10T14:30:23;1.20;;;0.70;;
3916;SDS011;1973;50.518;7.318;2023-05-10T14:32:49;1.10;;;0.80;;
3916;SDS011;1973;50.518;7.318;2023-05-10T14:35:16;1.73;;;0.80;;
3916;SDS011;1973;50.518;7.318;2023-05-10T14:37:45;2.80;;;0.83;;
3916;SDS011;1973;50.518;7.318;2023-05-10T14:40:11;2.33;;;0.90;;
3916;SDS011;1973;50.518;7.318;2023-05-10T14:42:38;2.13;;;0.90;;
3916;SDS011;1973;50.518;7.318;2023-05-10T14:45:05;1.30;;;1.00;;
3916;SDS011;1973;50.518;7.318;2023-05-10T14:47:31;7.47;;;1.10;;
3916;SDS011;1973;50.518;7.318;2023-05-10T14:49:58;1.40;;;1.00;;
3916;SDS011;1973;50.518;7.318;2023-05-10T14:52:25;1.40;;;0.70;;
3916;SDS011;1973;50.518;7.318;2023-05-10T14:54:51;1.60;;;0.90;;
3916;SDS011;1973;50.518;7.318;2023-05-10T14:57:18;1.20;;;0.87;;
3916;SDS011;1973;50.518;7.318;2023-05-10T14:59:44;3.37;;;1.03;;
3916;SDS011;1973;50.518;7.318;2023-05-10T15:02:11;1.40;;;1.17;;
3916;SDS011;1973;50.518;7.318;2023-05-10T15:04:38;2.27;;;1.20;;
3916;SDS011;1973;50.518;7.318;2023-05-10T15:07:05;3.23;;;2.30;;
3916;SDS011;1973;50.518;7.318;2023-05-10T15:09:32;1.90;;;1.63;;
3916;SDS011;1973;50.518;7.318;2023-05-10T15:11:58;2.37;;;1.50;;
3916;SDS011;1973;50.518;7.318;2023-05-10T15:14:24;1.50;;;1.00;;
3916;SDS011;1973;50.518;7.318;2023-05-10T15:16:51;1.90;;;1.30;;
3916;SDS011;1973;50.518;7.318;2023-05-10T15:19:17;2.73;;;1.73;;
3916;SDS011;1973;50.518;7.318;2023-05-10T15:21:44;2.40;;;1.57;;
3916;SDS011;1973;50.518;7.318;2023-05-10T15:24:11;2.73;;;1.50;;
3916;SDS011;1973;50.518;7.318;2023-05-10T15:26:37;4.20;;;2.93;;
3916;SDS011;1973;50.518;7.318;2023-05-10T15:29:04;3.67;;;3.23;;
3916;SDS011;1973;50.518;7.318;2023-05-10T15:31:30;2.07;;;1.63;;
3916;SDS011;1973;50.518;7.318;2023-05-10T15:33:57;2.40;;;1.93;;
3916;SDS011;1973;50.518;7.318;2023-05-10T15:36:27;1.90;;;1.30;;
3916;SDS011;1973;50.518;7.318;2023-05-10T15:38:53;1.30;;;0.90;;
3916;SDS011;1973;50.518;7.318;2023-05-10T15:41:20;2.50;;;1.30;;
3916;SDS011;1973;50.518;7.318;2023-05-10T15:43:47;1.77;;;1.00;;
3916;SDS011;1973;50.518;7.318;2023-05-10T15:46:13;2.37;;;1.20;;
3916;SDS011;1973;50.518;7.318;2023-05-10T15:48:40;2.33;;;0.90;;
3916;SDS011;1973;50.518;7.318;2023-05-10T15:51:06;2.20;;;1.23;;